createdAt,value
2022-11-20T02:04:26.495Z,54.65
2022-11-20T02:07:03.473Z,55.28
2022-11-20T02:09:29.942Z,55.42
2022-11-20T02:11:57.380Z,55.39
2022-11-20T02:14:25.003Z,55.05
2022-11-20T02:16:51.984Z,54.82
2022-11-20T02:19:28.592Z,54.61
2022-11-20T02:22:05.294Z,54.60
2022-11-20T02:24:32.296Z,55.08
2022-11-20T02:27:05.713Z,54.37
2022-11-20T02:29:34.773Z,54.83
2022-11-20T02:32:02.901Z,55.40
2022-11-20T02:34:29.783Z,54.95
2022-11-20T02:36:58.430Z,55.56
2022-11-20T02:39:27.389Z,55.05
2022-11-20T02:41:55.264Z,55.19
2022-11-20T02:44:21.654Z,54.95
2022-11-20T02:46:48.148Z,54.66
2022-11-20T02:49:14.689Z,55.06
2022-11-20T02:51:41.083Z,54.90
2022-11-20T02:54:07.571Z,54.76
2022-11-20T02:56:34.037Z,54.97
2022-11-20T02:59:00.431Z,54.95
2022-11-20T03:01:26.830Z,54.97
2022-11-20T03:03:55.395Z,55.01
2022-11-20T03:06:21.938Z,55.29
2022-11-20T03:08:48.572Z,55.18
2022-11-20T03:11:14.996Z,55.29
2022-11-20T03:13:41.440Z,54.96
2022-11-20T03:16:19.447Z,54.34
2022-11-20T03:18:46.534Z,55.19
2022-11-20T03:21:14.742Z,54.83
2022-11-20T03:23:41.510Z,54.85
2022-11-20T03:26:18.252Z,54.98
2022-11-20T03:28:50.451Z,54.97
2022-11-20T03:31:19.953Z,55.18
2022-11-20T03:33:46.408Z,55.58
2022-11-20T03:36:15.352Z,54.68
2022-11-20T03:38:42.132Z,55.51
2022-11-20T03:41:14.653Z,55.07
2022-11-20T03:43:41.165Z,54.79
2022-11-20T03:46:08.741Z,54.68
2022-11-20T03:48:35.680Z,55.18
2022-11-20T03:51:14.029Z,54.03
2022-11-20T03:53:41.914Z,54.54
2022-11-20T03:56:09.393Z,54.83
2022-11-20T03:58:38.176Z,54.57
2022-11-20T04:01:13.925Z,54.25
2022-11-20T04:03:41.934Z,55.16
2022-11-20T04:06:14.309Z,54.50
2022-11-20T04:08:41.722Z,54.95
2022-11-20T04:11:19.490Z,54.66
2022-11-20T04:13:54.554Z,54.52
2022-11-20T04:16:22.100Z,54.71
2022-11-20T04:18:51.938Z,55.05
2022-11-20T04:21:18.376Z,54.52
2022-11-20T04:23:44.843Z,55.24
2022-11-20T04:26:12.612Z,55.51
2022-11-20T04:28:39.920Z,54.89
2022-11-20T04:31:12.107Z,54.70
2022-11-20T04:33:38.631Z,55.44
2022-11-20T04:36:16.631Z,54.88
2022-11-20T04:38:43.883Z,55.33
2022-11-20T04:41:19.008Z,54.64
2022-11-20T04:43:52.685Z,54.81
2022-11-20T04:46:21.495Z,54.98
2022-11-20T04:48:48.803Z,55.00
2022-11-20T04:51:15.552Z,55.26
2022-11-20T04:53:42.779Z,55.21
2022-11-20T04:56:11.251Z,55.12
2022-11-20T04:58:37.901Z,55.44
2022-11-20T05:01:06.809Z,55.45
2022-11-20T05:03:35.507Z,55.41
2022-11-20T05:06:06.111Z,55.41
2022-11-20T05:08:33.588Z,54.91
2022-11-20T05:11:08.973Z,55.05
2022-11-20T05:13:35.589Z,55.40
2022-11-20T05:16:07.910Z,55.39
2022-11-20T05:18:35.758Z,55.12
2022-11-20T05:21:02.325Z,55.05
2022-11-20T05:23:30.897Z,55.34
2022-11-20T05:25:59.297Z,55.55
2022-11-20T05:28:26.850Z,55.42
2022-11-20T05:30:53.545Z,55.88
2022-11-20T05:33:20.373Z,55.24
2022-11-20T05:35:47.086Z,55.54
2022-11-20T05:38:13.713Z,55.48
2022-11-20T05:40:40.259Z,55.96
2022-11-20T05:43:06.833Z,55.73
2022-11-20T05:45:33.442Z,55.41
2022-11-20T05:48:03.701Z,55.74
2022-11-20T05:50:30.626Z,55.61
2022-11-20T05:53:00.486Z,55.36
2022-11-20T05:55:28.057Z,55.45
2022-11-20T05:57:55.975Z,55.52
2022-11-20T06:00:23.387Z,55.87
2022-11-20T06:02:50.178Z,55.95
2022-11-20T06:05:16.860Z,55.62
2022-11-20T06:07:43.623Z,56.04
2022-11-20T06:10:11.055Z,55.86
2022-11-20T06:12:37.596Z,55.46
2022-11-20T06:15:05.383Z,55.93
2022-11-20T06:17:31.968Z,55.72
2022-11-20T06:19:58.431Z,56.13
2022-11-20T06:22:24.943Z,56.14
2022-11-20T06:24:51.451Z,56.29
2022-11-20T06:27:17.912Z,55.26
2022-11-20T06:29:44.532Z,55.66
2022-11-20T06:32:11.038Z,56.04
2022-11-20T06:34:37.612Z,55.91
2022-11-20T06:37:04.160Z,56.15
2022-11-20T06:39:30.709Z,55.93
2022-11-20T06:41:59.243Z,55.85
2022-11-20T06:44:26.712Z,55.84
2022-11-20T06:46:53.233Z,55.61
2022-11-20T06:49:20.159Z,56.01
2022-11-20T06:51:47.033Z,55.80
2022-11-20T06:54:13.635Z,56.31
2022-11-20T06:56:40.110Z,56.31
2022-11-20T06:59:08.020Z,56.34
2022-11-20T07:01:34.786Z,56.13
2022-11-20T07:04:01.278Z,56.13
2022-11-20T07:06:27.836Z,56.64
2022-11-20T07:08:54.425Z,56.37
2022-11-20T07:11:21.026Z,56.75
2022-11-20T07:13:47.532Z,56.08
2022-11-20T07:16:14.127Z,56.61
2022-11-20T07:18:41.547Z,56.80
2022-11-20T07:21:11.036Z,56.94
2022-11-20T07:23:37.990Z,57.09
2022-11-20T07:26:06.933Z,57.51
2022-11-20T07:28:33.711Z,57.58
2022-11-20T07:31:00.496Z,57.18
2022-11-20T07:33:27.052Z,58.03
2022-11-20T07:35:53.790Z,57.64
2022-11-20T07:38:20.767Z,58.22
2022-11-20T07:40:47.351Z,57.58
2022-11-20T07:43:14.119Z,57.92
2022-11-20T07:45:41.073Z,57.87
2022-11-20T07:48:07.663Z,58.09
2022-11-20T07:50:34.250Z,58.02
2022-11-20T07:53:07.259Z,58.00
2022-11-20T07:55:34.412Z,58.27
2022-11-20T07:58:00.928Z,57.93
2022-11-20T08:00:28.512Z,57.79
2022-11-20T08:02:55.122Z,58.08
2022-11-20T08:05:21.690Z,57.97
2022-11-20T08:07:48.260Z,58.35
2022-11-20T08:10:17.105Z,58.43
2022-11-20T08:13:07.397Z,58.24
2022-11-20T08:15:34.211Z,58.19
2022-11-20T08:18:29.899Z,58.69
2022-11-20T08:20:52.453Z,58.56
2022-11-20T08:23:18.846Z,58.48
2022-11-20T08:25:50.640Z,58.84
2022-11-20T08:28:21.235Z,58.52
2022-11-20T08:30:48.457Z,58.72
2022-11-20T08:33:15.033Z,58.71
2022-11-20T08:35:42.650Z,58.25
2022-11-20T08:38:09.797Z,58.31
2022-11-20T08:40:36.349Z,58.37
2022-11-20T08:43:02.747Z,58.30
2022-11-20T08:45:33.758Z,58.21
2022-11-20T08:48:02.955Z,58.66
2022-11-20T08:50:32.690Z,58.49
2022-11-20T08:53:08.038Z,58.70
2022-11-20T08:55:36.419Z,59.06
2022-11-20T08:58:06.506Z,59.01
2022-11-20T09:00:34.057Z,58.86
2022-11-20T09:03:01.917Z,59.27
2022-11-20T09:05:28.611Z,59.28
2022-11-20T09:07:59.079Z,59.27
2022-11-20T09:10:26.079Z,58.75
2022-11-20T09:12:53.594Z,58.77
2022-11-20T09:15:40.901Z,58.31
2022-11-20T09:18:07.343Z,58.40
2022-11-20T09:26:12.279Z,58.23
2022-11-20T09:28:38.703Z,59.08
2022-11-20T09:31:25.158Z,59.14
2022-11-20T09:33:51.879Z,58.95
2022-11-20T09:36:19.529Z,58.98
2022-11-20T09:38:46.857Z,59.54
2022-11-20T09:41:41.983Z,59.62
2022-11-20T09:44:33.253Z,59.82
2022-11-20T09:47:09.704Z,59.76
2022-11-20T09:50:00.614Z,60.08
2022-11-20T09:52:33.245Z,60.23
2022-11-20T09:55:02.741Z,60.29
2022-11-20T09:57:39.176Z,60.19
2022-11-20T10:00:07.197Z,59.81
2022-11-20T10:02:52.613Z,60.10
2022-11-20T10:05:35.458Z,60.91
2022-11-20T10:08:25.056Z,61.04
2022-11-20T10:10:57.799Z,60.08
2022-11-20T10:13:57.954Z,60.99
2022-11-20T10:16:43.382Z,61.50
2022-11-20T10:25:09.695Z,61.08
2022-11-20T10:27:39.161Z,61.07
2022-11-20T10:30:17.957Z,61.84
2022-11-20T10:32:48.750Z,61.22
2022-11-20T10:35:21.918Z,61.34
2022-11-20T10:38:01.601Z,60.90
2022-11-20T10:40:44.198Z,60.50
2022-11-20T10:43:16.964Z,60.29
2022-11-20T10:46:06.691Z,60.32
2022-11-20T10:48:33.488Z,60.40
2022-11-20T10:51:05.966Z,59.75
2022-11-20T10:53:54.761Z,59.96
2022-11-20T10:56:34.333Z,60.19
2022-11-20T10:59:31.547Z,60.56
2022-11-20T11:01:59.790Z,62.71
2022-11-20T11:04:43.892Z,63.12
2022-11-20T11:07:18.815Z,65.43
2022-11-20T11:09:50.191Z,66.66
2022-11-20T11:12:16.760Z,68.50
2022-11-20T11:14:45.624Z,67.56
2022-11-20T11:17:32.715Z,63.02
2022-11-20T11:20:12.447Z,65.69
2022-11-20T11:23:06.530Z,58.37
2022-11-20T11:25:35.897Z,59.57
2022-11-20T11:28:18.708Z,55.38
2022-11-20T11:30:45.902Z,58.57
2022-11-20T11:33:24.566Z,50.07
2022-11-20T11:36:00.362Z,50.90
2022-11-20T11:38:43.861Z,50.67
2022-11-20T11:41:16.441Z,50.40
2022-11-20T11:44:11.584Z,46.02
2022-11-20T11:46:38.738Z,48.62
2022-11-20T11:49:11.092Z,47.47
2022-11-20T11:51:47.583Z,47.24
2022-11-20T11:54:25.361Z,45.76
2022-11-20T11:56:52.665Z,47.79
2022-11-20T11:59:43.206Z,45.24
2022-11-20T12:02:25.740Z,45.53
2022-11-20T12:04:58.684Z,45.88
2022-11-20T12:07:46.140Z,44.79
2022-11-20T12:10:30.483Z,44.32
2022-11-20T12:13:02.884Z,45.50
2022-11-20T12:15:35.245Z,46.20
2022-11-20T12:18:02.162Z,47.47
2022-11-20T12:20:42.472Z,47.37
2022-11-20T12:23:21.632Z,48.07
2022-11-20T12:25:54.805Z,48.90
2022-11-20T12:28:28.384Z,49.65
2022-11-20T12:31:27.411Z,50.21
2022-11-20T12:34:03.883Z,50.80
2022-11-20T12:36:44.896Z,52.17
2022-11-20T12:39:20.926Z,52.57
2022-11-20T12:42:32.397Z,53.99
2022-11-20T12:45:13.776Z,54.62
2022-11-20T12:48:01.938Z,55.14
2022-11-20T12:50:42.922Z,55.09
2022-11-20T12:53:31.835Z,55.74
2022-11-20T12:56:36.218Z,56.15
2022-11-20T12:59:19.172Z,55.47
2022-11-20T13:02:15.559Z,55.47
2022-11-20T13:05:06.479Z,55.53
2022-11-20T13:07:35.413Z,55.28
2022-11-20T13:10:04.302Z,55.34
2022-11-20T13:12:43.144Z,56.32
2022-11-20T13:15:54.519Z,57.04
2022-11-20T13:18:22.534Z,56.46
2022-11-20T13:20:50.495Z,56.64
2022-11-20T13:27:09.284Z,57.46
2022-11-20T13:29:38.423Z,56.75
2022-11-20T13:32:14.838Z,57.27
2022-11-20T13:34:57.011Z,57.83
2022-11-20T13:37:37.476Z,58.09
2022-11-20T13:40:10.431Z,58.59
2022-11-20T13:42:44.175Z,58.39
2022-11-20T13:45:32.231Z,58.53
2022-11-20T13:48:03.570Z,58.35
2022-11-20T13:50:47.265Z,57.28
2022-11-20T13:53:23.719Z,56.42
2022-11-20T13:56:00.096Z,56.26
2022-11-20T13:59:10.810Z,55.90
2022-11-20T14:01:44.274Z,55.87
2022-11-20T14:04:17.914Z,55.89
2022-11-20T14:06:47.719Z,56.01
2022-11-20T14:09:33.067Z,56.00
2022-11-20T14:11:59.826Z,56.16
2022-11-20T14:14:31.407Z,55.74
2022-11-20T14:17:07.659Z,55.62
2022-11-20T14:19:34.559Z,55.55
2022-11-20T14:22:20.954Z,55.24
2022-11-20T14:24:48.959Z,55.28
2022-11-20T14:27:18.634Z,55.34
2022-11-20T14:29:47.273Z,55.44
2022-11-20T14:32:17.977Z,55.69
2022-11-20T14:34:46.821Z,55.28
2022-11-20T14:37:20.579Z,55.25
2022-11-20T14:39:53.268Z,55.47
2022-11-20T14:42:26.145Z,55.61
2022-11-20T14:44:56.504Z,55.38
2022-11-20T14:47:29.740Z,55.33
2022-11-20T14:49:57.466Z,55.16
2022-11-20T14:52:26.469Z,55.29
2022-11-20T14:54:55.448Z,55.37
2022-11-20T14:57:21.802Z,55.48
2022-11-20T14:59:48.198Z,55.61
2022-11-20T15:02:14.786Z,55.85
2022-11-20T15:04:52.141Z,56.02
2022-11-20T15:07:37.080Z,56.08
2022-11-20T15:10:06.779Z,55.97
2022-11-20T15:12:35.842Z,55.91
2022-11-20T15:15:03.517Z,55.87
2022-11-20T15:17:32.266Z,56.12
2022-11-20T15:20:00.769Z,56.03
2022-11-20T15:22:27.091Z,56.42
2022-11-20T15:24:53.434Z,56.54
2022-11-20T15:27:19.775Z,56.34
2022-11-20T15:29:46.186Z,56.54
2022-11-20T15:32:13.807Z,56.60
2022-11-20T15:34:40.418Z,56.72
2022-11-20T15:37:06.741Z,56.83
2022-11-20T15:39:33.055Z,56.87
2022-11-20T15:41:59.403Z,56.90
2022-11-20T15:44:25.988Z,56.89
2022-11-20T15:46:52.561Z,56.72
2022-11-20T15:49:23.635Z,56.86
2022-11-20T15:51:50.874Z,57.00
2022-11-20T15:54:21.127Z,56.97
2022-11-20T15:56:49.455Z,56.94
2022-11-20T15:59:16.397Z,56.89
2022-11-20T16:01:43.635Z,56.60
2022-11-20T16:04:16.451Z,56.70
2022-11-20T16:06:43.013Z,56.70
2022-11-20T16:09:10.237Z,56.75
2022-11-20T16:11:37.480Z,56.69
2022-11-20T16:14:25.998Z,56.59
2022-11-20T16:16:52.582Z,56.71
2022-11-20T16:19:19.416Z,56.76
2022-11-20T16:21:45.813Z,56.61
2022-11-20T16:24:13.788Z,56.88
2022-11-20T16:26:40.925Z,56.69
2022-11-20T16:29:07.961Z,56.57
2022-11-20T16:31:34.985Z,56.59
2022-11-20T16:34:10.051Z,56.77
2022-11-20T16:36:40.609Z,56.68
2022-11-20T16:39:06.901Z,56.71
2022-11-20T16:41:35.056Z,56.87
2022-11-20T16:44:03.670Z,56.89
2022-11-20T16:46:31.887Z,57.12
2022-11-20T16:48:59.399Z,57.07
2022-11-20T16:51:26.834Z,57.31
2022-11-20T16:53:55.711Z,57.19
2022-11-20T16:56:25.480Z,57.16
2022-11-20T16:58:54.613Z,57.14
2022-11-20T17:01:23.235Z,57.29
2022-11-20T17:04:01.080Z,57.63
2022-11-20T17:06:35.321Z,57.40
2022-11-20T17:09:02.174Z,57.54
2022-11-20T17:11:29.167Z,57.52
2022-11-20T17:13:57.339Z,57.52
2022-11-20T17:16:24.794Z,57.56
2022-11-20T17:18:51.548Z,57.50
2022-11-20T17:21:19.396Z,57.42
2022-11-20T17:23:46.741Z,57.58
2022-11-20T17:26:17.557Z,57.40
2022-11-20T17:28:45.716Z,57.44
2022-11-20T17:31:15.368Z,57.41
2022-11-20T17:33:43.237Z,57.42
2022-11-20T17:36:14.753Z,57.35
2022-11-20T17:38:41.618Z,57.22
2022-11-20T17:41:13.237Z,57.44
2022-11-20T17:43:40.589Z,57.30
2022-11-20T17:46:08.297Z,57.35
2022-11-20T17:48:35.678Z,57.29
2022-11-20T17:51:04.113Z,57.50
2022-11-20T17:53:34.491Z,57.44
2022-11-20T17:56:19.722Z,57.62
2022-11-20T17:58:46.474Z,57.58
2022-11-20T18:01:13.103Z,57.46
2022-11-20T18:03:39.490Z,57.44
2022-11-20T18:06:10.270Z,57.88
2022-11-20T18:08:36.775Z,57.69
2022-11-20T18:11:17.842Z,57.87
2022-11-20T18:14:05.070Z,57.38
2022-11-20T18:16:35.394Z,57.62
2022-11-20T18:19:02.227Z,57.70
2022-11-20T18:21:29.976Z,57.59
2022-11-20T18:23:57.247Z,57.91
2022-11-20T18:26:24.369Z,57.91
2022-11-20T18:28:51.663Z,57.71
2022-11-20T18:31:18.643Z,58.14
2022-11-20T18:33:45.668Z,57.62
2022-11-20T18:36:12.832Z,58.06
2022-11-20T18:38:40.972Z,57.83
2022-11-20T18:41:08.468Z,57.88
2022-11-20T18:43:53.653Z,58.01
2022-11-20T18:46:21.901Z,57.96
2022-11-20T18:48:48.333Z,58.00
2022-11-20T18:51:16.170Z,58.09
2022-11-20T18:53:47.172Z,57.84
2022-11-20T18:56:14.057Z,57.85
2022-11-20T18:58:41.264Z,58.17
2022-11-20T19:01:08.352Z,58.38
2022-11-20T19:03:35.130Z,58.47
2022-11-20T19:10:54.590Z,58.62
2022-11-20T19:13:20.982Z,58.65
2022-11-20T19:15:47.559Z,58.62
2022-11-20T19:18:13.878Z,58.74
2022-11-20T19:20:40.201Z,58.78
2022-11-20T19:23:06.548Z,58.92
2022-11-20T19:25:37.937Z,58.68
2022-11-20T19:28:04.722Z,58.96
2022-11-20T19:30:31.071Z,58.94
2022-11-20T19:32:58.016Z,59.03
2022-11-20T19:35:24.688Z,58.84
2022-11-20T19:37:51.618Z,59.27
2022-11-20T19:40:17.987Z,59.26
2022-11-20T19:42:47.089Z,59.65
2022-11-20T19:45:13.774Z,59.14
2022-11-20T19:50:26.499Z,59.67
2022-11-20T19:52:57.354Z,59.66
2022-11-20T19:55:25.133Z,59.86
2022-11-20T19:57:51.496Z,59.76
2022-11-20T20:00:23.024Z,59.74
2022-11-20T20:02:53.895Z,59.89
2022-11-20T20:08:00.872Z,59.72
2022-11-20T20:10:27.459Z,60.34
2022-11-20T20:12:54.097Z,60.26
2022-11-20T20:15:20.402Z,60.07
2022-11-20T20:17:46.732Z,60.31
2022-11-20T20:20:13.196Z,60.43
2022-11-20T20:22:39.577Z,60.34
2022-11-20T20:25:06.249Z,60.50
2022-11-20T20:27:32.649Z,60.70
2022-11-20T20:29:58.979Z,60.57
2022-11-20T20:32:25.305Z,60.60
2022-11-20T20:34:51.638Z,60.78
2022-11-20T20:37:17.965Z,60.31
2022-11-20T20:39:44.326Z,60.76
2022-11-20T20:42:10.651Z,60.75
2022-11-20T20:44:55.467Z,60.66
2022-11-20T20:47:21.858Z,60.63
2022-11-20T20:49:48.199Z,60.90
2022-11-20T20:52:14.963Z,60.73
2022-11-20T20:54:42.238Z,60.55
2022-11-20T20:57:08.572Z,61.03
2022-11-20T20:59:34.891Z,60.95
2022-11-20T21:02:01.274Z,60.94
2022-11-20T21:04:27.632Z,61.20
2022-11-20T21:06:54.008Z,61.04
2022-11-20T21:09:21.061Z,61.38
2022-11-20T21:11:47.748Z,60.91
2022-11-20T21:14:14.080Z,61.13
2022-11-20T21:16:43.985Z,61.48
2022-11-20T21:19:11.553Z,61.32
2022-11-20T21:21:56.302Z,61.25
2022-11-20T21:24:23.179Z,60.92
2022-11-20T21:26:52.024Z,61.26
2022-11-20T21:29:19.514Z,61.39
2022-11-20T21:31:46.165Z,61.01
2022-11-20T21:34:14.034Z,61.40
2022-11-20T21:36:40.793Z,61.46
2022-11-20T21:39:07.547Z,61.38
2022-11-20T21:41:34.332Z,61.37
2022-11-20T21:46:50.047Z,61.51
2022-11-20T21:49:18.126Z,61.75
2022-11-20T21:51:44.532Z,61.43
2022-11-20T21:54:11.640Z,61.85
2022-11-20T21:56:38.136Z,61.34
2022-11-20T21:59:04.510Z,61.29
2022-11-20T22:01:31.124Z,61.26
2022-11-20T22:04:02.146Z,61.69
2022-11-20T22:06:33.944Z,61.51
2022-11-20T22:09:01.739Z,61.42
2022-11-20T22:11:28.115Z,61.45
2022-11-20T22:14:13.174Z,61.12
2022-11-20T22:16:39.668Z,61.25
2022-11-20T22:19:06.359Z,61.34
2022-11-20T22:21:33.368Z,61.29
2022-11-20T22:24:00.332Z,61.16
2022-11-20T22:26:29.378Z,61.23
2022-11-20T22:28:57.805Z,61.30
2022-11-20T22:31:26.109Z,61.37
2022-11-20T22:33:53.293Z,61.19
2022-11-20T22:36:25.121Z,61.15
2022-11-20T22:38:52.040Z,61.10
2022-11-20T22:41:20.779Z,61.26
2022-11-20T22:43:47.897Z,60.91
2022-11-20T22:46:17.017Z,61.75
2022-11-20T22:48:55.151Z,61.69
2022-11-20T22:51:27.313Z,61.42
2022-11-20T22:53:53.718Z,60.87
2022-11-20T22:56:20.890Z,61.33
2022-11-20T22:58:49.650Z,61.38
2022-11-20T23:01:20.595Z,61.64
2022-11-20T23:03:49.345Z,61.18
2022-11-20T23:06:18.347Z,61.41
2022-11-20T23:08:45.580Z,60.90
2022-11-20T23:11:25.487Z,61.19
2022-11-20T23:14:03.622Z,61.31
2022-11-20T23:16:31.135Z,61.13
2022-11-20T23:18:59.965Z,61.31
2022-11-20T23:21:26.929Z,60.87
2022-11-20T23:23:55.865Z,61.15
2022-11-20T23:26:24.416Z,60.86
2022-11-20T23:28:53.549Z,60.93
2022-11-20T23:31:20.128Z,61.19
2022-11-20T23:33:46.505Z,60.90
2022-11-20T23:36:13.608Z,60.98
2022-11-20T23:38:40.528Z,61.30
2022-11-20T23:41:07.265Z,61.04
2022-11-20T23:43:34.352Z,60.93
2022-11-20T23:46:01.829Z,61.18
2022-11-20T23:48:30.893Z,60.97
2022-11-20T23:50:57.906Z,61.09
2022-11-20T23:53:24.805Z,60.83
2022-11-20T23:55:53.843Z,60.94
2022-11-20T23:58:21.319Z,60.95
